createdAt,value
2023-04-29T00:01:10.069Z,4.60
2023-04-29T00:03:37.202Z,1.80
2023-04-29T00:06:05.005Z,5.40
2023-04-29T00:08:32.544Z,1.70
2023-04-29T00:10:59.489Z,4.70
2023-04-29T00:13:26.641Z,1.60
2023-04-29T00:15:53.894Z,9.70
2023-04-29T00:18:20.945Z,2.20
2023-04-29T00:20:47.982Z,4.00
2023-04-29T00:23:14.926Z,1.20
2023-04-29T00:25:41.882Z,1.80
2023-04-29T00:28:08.871Z,1.50
2023-04-29T00:30:36.165Z,3.80
2023-04-29T00:33:04.078Z,1.10
2023-04-29T00:35:31.423Z,1.80
2023-04-29T00:37:58.468Z,1.60
2023-04-29T00:40:25.478Z,1.20
2023-04-29T00:42:52.530Z,4.30
2023-04-29T00:45:19.903Z,4.00
2023-04-29T00:47:47.406Z,1.40
2023-04-29T00:50:14.487Z,1.80
2023-04-29T00:52:41.672Z,2.60
2023-04-29T00:55:09.228Z,2.20
2023-04-29T00:57:36.263Z,3.60
2023-04-29T01:00:04.414Z,6.50
2023-04-29T01:02:31.802Z,4.10
2023-04-29T01:04:58.917Z,6.10
2023-04-29T01:07:37.948Z,4.50
2023-04-29T01:10:23.331Z,3.20
2023-04-29T01:13:10.192Z,5.80
2023-04-29T01:16:04.309Z,3.80
2023-04-29T01:18:41.460Z,4.10
2023-04-29T01:21:09.261Z,4.50
2023-04-29T01:23:36.414Z,7.10
2023-04-29T01:26:03.771Z,4.30
2023-04-29T01:28:49.558Z,3.00
2023-04-29T01:31:28.720Z,1.30
2023-04-29T01:34:08.738Z,2.50
2023-04-29T01:36:45.209Z,3.70
2023-04-29T01:39:12.762Z,4.80
2023-04-29T01:41:55.420Z,2.70
2023-04-29T01:44:29.271Z,2.30
2023-04-29T01:46:56.696Z,3.80
2023-04-29T01:49:30.442Z,3.00
2023-04-29T01:51:57.907Z,2.60
2023-04-29T01:54:25.909Z,3.90
2023-04-29T01:56:53.136Z,1.40
2023-04-29T01:59:30.223Z,2.40
2023-04-29T02:02:37.026Z,7.40
2023-04-29T02:05:11.825Z,2.20
2023-04-29T02:07:42.512Z,3.90
2023-04-29T02:10:10.086Z,3.80
2023-04-29T02:12:37.494Z,5.10
2023-04-29T02:15:05.047Z,3.70
2023-04-29T02:21:02.114Z,4.30
2023-04-29T02:23:29.747Z,1.90
2023-04-29T02:25:56.694Z,2.80
2023-04-29T02:28:24.763Z,1.90
2023-04-29T02:30:52.022Z,4.90
2023-04-29T02:33:19.267Z,3.10
2023-04-29T02:35:46.520Z,2.70
2023-04-29T02:38:13.669Z,1.80
2023-04-29T02:40:44.394Z,8.30
2023-04-29T02:43:12.077Z,3.80
2023-04-29T02:45:39.372Z,4.20
2023-04-29T02:48:07.365Z,2.70
2023-04-29T02:50:34.741Z,6.30
2023-04-29T02:53:02.192Z,2.60
2023-04-29T02:55:29.345Z,6.00
2023-04-29T02:57:59.363Z,3.20
2023-04-29T03:00:26.312Z,5.90
2023-04-29T03:02:53.721Z,1.30
2023-04-29T03:05:20.915Z,5.00
2023-04-29T03:07:47.965Z,1.80
2023-04-29T03:10:15.113Z,1.80
2023-04-29T03:12:42.358Z,3.70
2023-04-29T03:15:10.847Z,3.50
2023-04-29T03:17:38.012Z,3.20
2023-04-29T03:20:06.403Z,4.60
2023-04-29T03:22:33.720Z,0.90
2023-04-29T03:25:00.887Z,7.00
2023-04-29T03:27:28.222Z,2.50
2023-04-29T03:29:55.404Z,3.10
2023-04-29T03:32:22.617Z,2.80
2023-04-29T03:34:50.793Z,1.80
2023-04-29T03:37:27.365Z,2.10
2023-04-29T03:40:00.454Z,2.40
2023-04-29T03:42:27.504Z,1.50
2023-04-29T03:44:54.550Z,2.00
2023-04-29T03:47:21.486Z,3.40
2023-04-29T03:49:49.510Z,2.90
2023-04-29T03:52:16.921Z,5.00
2023-04-29T03:54:44.540Z,6.60
2023-04-29T03:57:11.929Z,1.20
2023-04-29T03:59:39.076Z,1.80
2023-04-29T04:02:06.910Z,3.20
2023-04-29T04:04:34.700Z,1.90
2023-04-29T04:07:01.866Z,4.40
2023-04-29T04:09:31.458Z,4.20
2023-04-29T04:11:59.020Z,1.80
2023-04-29T04:14:26.172Z,1.80
2023-04-29T04:16:53.115Z,2.80
2023-04-29T04:19:20.877Z,2.50
2023-04-29T04:21:47.923Z,2.50
2023-04-29T04:24:14.973Z,4.00
2023-04-29T04:26:42.732Z,3.10
2023-04-29T04:29:22.278Z,2.80
2023-04-29T04:32:02.927Z,6.50
2023-04-29T04:34:30.301Z,1.30
2023-04-29T04:36:58.060Z,2.90
2023-04-29T04:39:25.737Z,3.30
2023-04-29T04:41:53.497Z,2.10
2023-04-29T04:44:21.151Z,1.70
2023-04-29T04:47:20.763Z,2.00
2023-04-29T04:50:04.906Z,5.00
2023-04-29T04:52:32.057Z,4.60
2023-04-29T04:55:15.103Z,2.30
2023-04-29T04:57:44.481Z,1.50
2023-04-29T05:00:13.397Z,2.20
2023-04-29T05:02:40.595Z,6.50
2023-04-29T05:05:08.294Z,1.90
2023-04-29T05:07:36.559Z,2.20
2023-04-29T05:10:06.887Z,6.60
2023-04-29T05:12:35.499Z,4.00
2023-04-29T05:15:04.517Z,1.30
2023-04-29T05:17:31.974Z,7.00
2023-04-29T05:19:59.485Z,4.80
2023-04-29T05:22:27.030Z,4.60
2023-04-29T05:24:55.416Z,3.60
2023-04-29T05:27:22.969Z,2.50
2023-04-29T05:29:50.483Z,3.10
2023-04-29T05:32:18.291Z,4.40
2023-04-29T05:34:45.566Z,1.60
2023-04-29T05:37:12.589Z,1.80
2023-04-29T05:39:54.363Z,7.60
2023-04-29T05:42:21.526Z,2.80
2023-04-29T05:44:51.449Z,3.70
2023-04-29T05:47:18.389Z,3.20
2023-04-29T05:49:45.747Z,1.80
2023-04-29T05:52:13.102Z,4.60
2023-04-29T05:54:44.455Z,2.40
2023-04-29T05:57:12.309Z,2.00
2023-04-29T05:59:40.277Z,1.80
2023-04-29T06:02:07.224Z,3.90
2023-04-29T06:04:36.696Z,2.70
2023-04-29T06:07:20.178Z,2.70
2023-04-29T06:10:11.180Z,3.70
2023-04-29T06:12:40.777Z,5.80
2023-04-29T06:15:08.540Z,1.80
2023-04-29T06:17:35.636Z,2.20
2023-04-29T06:20:02.635Z,2.50
2023-04-29T06:22:29.892Z,3.00
2023-04-29T06:24:57.039Z,7.30
2023-04-29T06:27:37.189Z,2.90
2023-04-29T06:30:05.837Z,4.70
2023-04-29T06:32:32.960Z,1.80
2023-04-29T06:34:59.970Z,5.60
2023-04-29T06:37:35.881Z,3.10
2023-04-29T06:40:14.232Z,4.00
2023-04-29T06:43:19.901Z,2.10
2023-04-29T06:45:47.138Z,4.60
2023-04-29T06:48:22.889Z,5.00
2023-04-29T06:50:54.491Z,3.80
2023-04-29T06:53:21.593Z,5.50
2023-04-29T06:55:48.635Z,2.10
2023-04-29T06:58:16.619Z,5.10
2023-04-29T07:00:47.740Z,3.70
2023-04-29T07:03:15.372Z,3.70
2023-04-29T07:05:45.557Z,3.10
2023-04-29T07:08:13.557Z,3.70
2023-04-29T07:10:41.891Z,1.00
2023-04-29T07:13:08.929Z,3.30
2023-04-29T07:15:36.581Z,9.00
2023-04-29T07:18:05.567Z,4.20
2023-04-29T07:20:32.727Z,4.30
2023-04-29T07:22:59.773Z,0.60
2023-04-29T07:25:27.998Z,3.90
2023-04-29T07:27:56.735Z,4.70
2023-04-29T07:30:25.411Z,2.30
2023-04-29T07:32:52.698Z,9.10
2023-04-29T07:35:19.922Z,1.40
2023-04-29T07:37:46.977Z,2.20
2023-04-29T07:40:14.223Z,4.50
2023-04-29T07:42:41.278Z,5.40
2023-04-29T07:45:08.840Z,2.80
2023-04-29T07:47:36.198Z,5.80
2023-04-29T07:50:03.537Z,4.30
2023-04-29T07:52:31.194Z,2.30
2023-04-29T07:54:58.139Z,1.90
2023-04-29T07:57:25.495Z,5.10
2023-04-29T07:59:55.719Z,7.80
2023-04-29T08:02:23.503Z,5.40
2023-04-29T08:04:51.820Z,1.90
2023-04-29T08:07:19.307Z,2.30
2023-04-29T08:09:46.582Z,2.90
2023-04-29T08:12:13.718Z,2.40
2023-04-29T08:14:40.960Z,0.80
2023-04-29T08:17:08.959Z,4.40
2023-04-29T08:19:36.720Z,0.70
2023-04-29T08:22:04.490Z,2.60
2023-04-29T08:24:33.657Z,6.40
2023-04-29T08:27:01.621Z,3.70
2023-04-29T08:29:28.795Z,3.70
2023-04-29T08:31:56.055Z,1.90
2023-04-29T08:34:24.201Z,3.30
2023-04-29T08:36:51.246Z,3.90
2023-04-29T08:40:21.038Z,3.00
2023-04-29T08:42:49.055Z,1.70
2023-04-29T08:45:17.511Z,4.50
2023-04-29T08:47:44.446Z,1.60
2023-04-29T08:50:11.546Z,2.00
2023-04-29T08:52:38.551Z,3.40
2023-04-29T08:55:06.111Z,6.70
2023-04-29T08:57:39.906Z,3.10
2023-04-29T09:00:08.973Z,3.80
2023-04-29T09:02:39.509Z,1.20
2023-04-29T09:05:09.764Z,6.00
2023-04-29T09:07:38.184Z,6.90
2023-04-29T09:10:05.721Z,1.90
2023-04-29T09:12:32.741Z,3.70
2023-04-29T09:15:00.023Z,4.40
2023-04-29T09:17:47.168Z,2.30
2023-04-29T09:20:21.515Z,6.30
2023-04-29T09:22:54.170Z,3.90
2023-04-29T09:25:22.201Z,1.40
2023-04-29T09:27:49.403Z,0.90
2023-04-29T09:30:17.094Z,3.40
2023-04-29T09:32:45.917Z,4.80
2023-04-29T09:35:26.560Z,2.30
2023-04-29T09:37:54.413Z,2.40
2023-04-29T09:40:31.788Z,3.50
2023-04-29T09:42:59.675Z,4.60
2023-04-29T09:45:37.059Z,1.70
2023-04-29T09:48:07.545Z,3.60
2023-04-29T09:50:44.366Z,6.50
2023-04-29T09:53:11.832Z,2.00
2023-04-29T09:55:59.240Z,1.50
2023-04-29T09:58:40.448Z,4.60
2023-04-29T10:01:08.472Z,3.10
2023-04-29T10:03:37.103Z,1.40
2023-04-29T10:06:05.850Z,2.20
2023-04-29T10:08:33.524Z,4.60
2023-04-29T10:11:02.408Z,21.60
2023-04-29T10:13:29.667Z,1.40
2023-04-29T10:15:59.740Z,2.70
2023-04-29T10:18:31.384Z,3.00
2023-04-29T10:20:58.684Z,5.00
2023-04-29T10:23:25.590Z,5.90
2023-04-29T10:25:53.191Z,3.40
2023-04-29T10:28:20.543Z,3.60
2023-04-29T10:30:51.587Z,5.70
2023-04-29T10:33:18.720Z,6.20
2023-04-29T10:35:45.766Z,1.50
2023-04-29T10:38:24.720Z,8.80
2023-04-29T10:40:51.958Z,2.50
2023-04-29T10:43:24.206Z,7.60
2023-04-29T10:45:51.270Z,2.40
2023-04-29T10:48:21.494Z,4.60
2023-04-29T10:50:48.444Z,2.80
2023-04-29T10:53:15.920Z,7.80
2023-04-29T10:55:43.161Z,4.90
2023-04-29T10:58:38.456Z,3.30
2023-04-29T11:01:05.834Z,2.50
2023-04-29T11:03:58.752Z,10.70
2023-04-29T11:06:47.531Z,4.70
2023-04-29T11:09:24.600Z,2.40
2023-04-29T11:12:08.559Z,11.90
2023-04-29T11:14:43.482Z,4.60
2023-04-29T11:17:15.546Z,10.10
2023-04-29T11:19:46.823Z,3.80
2023-04-29T11:22:21.643Z,4.00
2023-04-29T11:24:54.159Z,2.50
2023-04-29T11:27:25.508Z,7.60
2023-04-29T11:29:58.692Z,4.00
2023-04-29T11:32:33.228Z,6.50
2023-04-29T11:35:14.078Z,2.90
2023-04-29T11:37:41.912Z,3.30
2023-04-29T11:40:09.988Z,3.80
2023-04-29T11:42:47.049Z,7.80
2023-04-29T11:45:15.546Z,1.50
2023-04-29T11:47:44.001Z,4.90
2023-04-29T11:50:11.856Z,2.30
2023-04-29T11:52:40.305Z,4.80
2023-04-29T11:55:10.774Z,2.70
2023-04-29T11:57:38.232Z,3.70
2023-04-29T12:00:07.990Z,1.50
2023-04-29T12:02:37.871Z,1.20
2023-04-29T12:05:13.540Z,6.20
2023-04-29T12:07:40.962Z,3.10
2023-04-29T12:10:10.753Z,2.30
2023-04-29T12:12:41.115Z,4.40
2023-04-29T12:15:10.513Z,4.80
2023-04-29T12:17:37.991Z,1.90
2023-04-29T12:20:07.497Z,4.30
2023-04-29T12:22:34.614Z,8.90
2023-04-29T12:25:05.515Z,6.00
2023-04-29T12:27:33.957Z,2.90
2023-04-29T12:30:01.074Z,13.00
2023-04-29T12:32:28.041Z,3.10
2023-04-29T12:34:56.148Z,3.60
2023-04-29T12:37:23.959Z,4.00
2023-04-29T12:39:51.259Z,4.60
2023-04-29T12:42:18.786Z,4.00
2023-04-29T12:44:49.261Z,2.80
2023-04-29T12:47:16.998Z,2.20
2023-04-29T12:49:48.456Z,6.80
2023-04-29T12:52:15.562Z,2.90
2023-04-29T12:54:44.142Z,3.60
2023-04-29T12:57:12.153Z,4.50
2023-04-29T12:59:42.942Z,3.10
2023-04-29T13:02:10.572Z,1.80
2023-04-29T13:04:38.580Z,7.00
2023-04-29T13:07:07.452Z,2.60
2023-04-29T13:09:35.937Z,1.40
2023-04-29T13:12:03.085Z,1.60
2023-04-29T13:14:30.645Z,2.20
2023-04-29T13:16:57.728Z,1.90
2023-04-29T13:19:41.151Z,1.50
2023-04-29T13:24:39.010Z,1.30
2023-04-29T13:27:06.155Z,1.10
2023-04-29T13:29:33.559Z,3.90
2023-04-29T13:32:01.381Z,4.50
2023-04-29T13:34:28.622Z,0.90
2023-04-29T13:36:55.674Z,9.80
2023-04-29T13:39:23.538Z,1.00
2023-04-29T13:41:51.199Z,1.30
2023-04-29T13:44:29.543Z,4.50
2023-04-29T13:47:05.656Z,1.40
2023-04-29T13:52:54.251Z,4.60
2023-04-29T13:55:25.764Z,3.70
2023-04-29T14:00:25.079Z,1.10
2023-04-29T14:05:27.166Z,0.90
2023-04-29T14:07:54.351Z,0.80
2023-04-29T14:10:21.692Z,1.20
2023-04-29T14:12:49.050Z,7.30
2023-04-29T14:15:16.933Z,5.40
2023-04-29T14:17:43.997Z,1.50
2023-04-29T14:20:11.725Z,3.60
2023-04-29T14:22:38.776Z,2.30
2023-04-29T14:25:06.643Z,6.60
2023-04-29T14:27:34.915Z,2.20
2023-04-29T14:30:02.017Z,2.90
2023-04-29T14:32:29.197Z,1.80
2023-04-29T14:34:56.486Z,4.80
2023-04-29T14:37:23.733Z,4.50
2023-04-29T14:39:50.974Z,4.80
2023-04-29T14:42:18.934Z,2.90
2023-04-29T14:44:45.888Z,16.10
2023-04-29T14:47:13.441Z,10.10
2023-04-29T14:49:42.839Z,10.00
2023-04-29T14:52:10.091Z,5.00
2023-04-29T14:54:38.109Z,3.40
2023-04-29T14:57:05.107Z,3.20
2023-04-29T14:59:33.685Z,4.50
2023-04-29T15:02:00.769Z,3.40
2023-04-29T15:04:28.644Z,4.60
2023-04-29T15:06:55.656Z,1.20
2023-04-29T15:09:23.718Z,1.50
2023-04-29T15:11:51.172Z,2.20
2023-04-29T15:14:18.441Z,2.00
2023-04-29T15:16:46.333Z,7.70
2023-04-29T15:19:13.549Z,1.30
2023-04-29T15:21:40.592Z,7.50
2023-04-29T15:24:08.778Z,3.60
2023-04-29T15:26:35.722Z,2.10
2023-04-29T15:29:04.296Z,4.80
2023-04-29T15:31:31.346Z,4.70
2023-04-29T15:33:58.385Z,2.10
2023-04-29T15:36:30.248Z,1.10
2023-04-29T15:38:57.425Z,4.00
2023-04-29T15:41:27.813Z,3.20
2023-04-29T15:43:55.382Z,4.10
2023-04-29T15:46:22.457Z,8.50
2023-04-29T15:48:49.582Z,3.20
2023-04-29T15:51:16.744Z,6.70
2023-04-29T15:53:44.834Z,3.50
2023-04-29T15:56:12.260Z,2.50
2023-04-29T15:58:39.298Z,9.00
2023-04-29T16:01:06.584Z,6.00
2023-04-29T16:03:33.632Z,4.60
2023-04-29T16:06:00.800Z,1.30
2023-04-29T16:08:28.009Z,6.50
2023-04-29T16:10:54.943Z,12.10
2023-04-29T16:13:21.883Z,13.60
2023-04-29T16:15:48.944Z,6.20
2023-04-29T16:18:17.595Z,5.20
2023-04-29T16:20:45.180Z,4.10
2023-04-29T16:23:12.343Z,8.60
2023-04-29T16:25:41.016Z,8.60
2023-04-29T16:28:07.974Z,18.70
2023-04-29T16:30:35.968Z,13.30
2023-04-29T16:33:03.099Z,6.70
2023-04-29T16:35:31.163Z,9.90
2023-04-29T16:37:58.407Z,5.70
2023-04-29T16:40:25.663Z,2.00
2023-04-29T16:42:53.651Z,3.90
2023-04-29T16:45:23.160Z,3.80
2023-04-29T16:47:51.267Z,1.60
2023-04-29T16:50:18.776Z,4.70
2023-04-29T16:52:45.814Z,7.00
2023-04-29T16:55:12.959Z,27.10
2023-04-29T16:57:40.005Z,22.60
2023-04-29T17:00:11.347Z,14.20
2023-04-29T17:02:40.485Z,5.40
2023-04-29T17:05:09.205Z,14.90
2023-04-29T17:07:36.284Z,13.10
2023-04-29T17:10:04.242Z,7.00
2023-04-29T17:12:31.187Z,7.10
2023-04-29T17:14:58.245Z,5.00
2023-04-29T17:17:25.335Z,3.90
2023-04-29T17:19:52.705Z,4.60
2023-04-29T17:22:20.102Z,5.80
2023-04-29T17:24:47.648Z,4.70
2023-04-29T17:27:14.898Z,1.90
2023-04-29T17:29:43.275Z,9.00
2023-04-29T17:32:11.516Z,4.10
2023-04-29T17:34:39.321Z,2.50
2023-04-29T17:37:06.473Z,2.10
2023-04-29T17:39:34.317Z,2.60
2023-04-29T17:42:01.584Z,3.00
2023-04-29T17:44:28.834Z,3.30
2023-04-29T17:46:56.504Z,4.40
2023-04-29T17:49:23.545Z,3.60
2023-04-29T17:51:50.593Z,4.10
2023-04-29T17:54:17.632Z,1.70
2023-04-29T17:56:44.684Z,2.90
2023-04-29T17:59:12.056Z,1.90
2023-04-29T18:01:39.321Z,10.10
2023-04-29T18:04:06.798Z,1.80
2023-04-29T18:06:33.949Z,3.40
2023-04-29T18:09:03.000Z,1.50
2023-04-29T18:11:30.037Z,2.60
2023-04-29T18:13:57.203Z,4.50
2023-04-29T18:16:24.460Z,4.90
2023-04-29T18:18:56.806Z,4.10
2023-04-29T18:21:25.294Z,1.50
2023-04-29T18:23:52.304Z,4.00
2023-04-29T18:26:19.262Z,2.60
2023-04-29T18:28:46.652Z,2.20
2023-04-29T18:31:15.170Z,3.10
2023-04-29T18:33:42.320Z,4.50
2023-04-29T18:36:09.405Z,1.90
2023-04-29T18:38:36.865Z,8.20
2023-04-29T18:41:05.041Z,18.50
2023-04-29T18:43:32.170Z,9.70
2023-04-29T18:45:59.177Z,5.90
2023-04-29T18:48:27.800Z,2.50
2023-04-29T18:50:55.976Z,2.80
2023-04-29T18:53:22.891Z,2.20
2023-04-29T18:55:49.889Z,1.80
2023-04-29T18:58:16.760Z,6.20
2023-04-29T19:00:43.736Z,1.20
2023-04-29T19:03:11.613Z,2.30
2023-04-29T19:05:38.879Z,6.50
2023-04-29T19:08:06.579Z,1.70
2023-04-29T19:10:33.487Z,2.40
2023-04-29T19:13:00.510Z,3.20
2023-04-29T19:15:28.415Z,8.60
2023-04-29T19:21:17.696Z,5.80
2023-04-29T19:23:44.742Z,2.30
2023-04-29T19:26:11.951Z,6.50
2023-04-29T19:28:38.908Z,3.60
2023-04-29T19:31:05.920Z,8.80
2023-04-29T19:33:33.030Z,9.00
2023-04-29T19:36:00.100Z,6.20
2023-04-29T19:38:27.151Z,14.10
2023-04-29T19:40:56.011Z,3.00
2023-04-29T19:43:23.468Z,6.10
2023-04-29T19:45:50.821Z,5.40
2023-04-29T19:48:17.872Z,1.60
2023-04-29T19:50:44.916Z,3.90
2023-04-29T19:53:11.970Z,2.90
2023-04-29T19:55:40.114Z,1.80
2023-04-29T19:58:08.344Z,1.90
2023-04-29T20:00:35.403Z,3.50
2023-04-29T20:03:03.356Z,3.20
2023-04-29T20:05:30.475Z,3.70
2023-04-29T20:07:57.530Z,1.30
2023-04-29T20:10:25.358Z,2.10
2023-04-29T20:12:53.895Z,1.60
2023-04-29T20:15:20.924Z,1.20
2023-04-29T20:17:47.896Z,0.90
2023-04-29T20:20:15.539Z,3.70
2023-04-29T20:22:42.572Z,3.50
2023-04-29T20:25:10.742Z,2.60
2023-04-29T20:27:38.088Z,2.30
2023-04-29T20:30:05.960Z,6.60
2023-04-29T20:32:33.046Z,2.20
2023-04-29T20:35:00.272Z,1.90
2023-04-29T20:37:27.518Z,8.10
2023-04-29T20:39:55.094Z,6.70
2023-04-29T20:42:22.424Z,5.60
2023-04-29T20:44:49.370Z,7.80
2023-04-29T20:47:16.417Z,2.20
2023-04-29T20:49:43.576Z,5.00
2023-04-29T20:52:10.821Z,6.30
2023-04-29T20:54:38.077Z,3.60
2023-04-29T20:58:29.199Z,4.10
2023-04-29T21:00:56.673Z,3.10
2023-04-29T21:03:24.715Z,5.70
2023-04-29T21:05:55.589Z,1.60
2023-04-29T21:08:22.698Z,2.40
2023-04-29T21:10:49.644Z,2.80
2023-04-29T21:13:18.024Z,1.40
2023-04-29T21:15:46.588Z,4.80
2023-04-29T21:18:14.032Z,3.30
2023-04-29T21:20:41.209Z,1.20
2023-04-29T21:23:08.152Z,2.00
2023-04-29T21:25:35.231Z,3.40
2023-04-29T21:28:02.420Z,2.70
2023-04-29T21:30:29.501Z,1.10
2023-04-29T21:32:56.501Z,5.90
2023-04-29T21:35:23.723Z,3.20
2023-04-29T21:37:50.612Z,18.60
2023-04-29T21:40:18.813Z,5.10
2023-04-29T21:42:45.732Z,3.00
2023-04-29T21:45:14.879Z,8.10
2023-04-29T21:47:41.895Z,12.70
2023-04-29T21:50:09.581Z,5.30
2023-04-29T21:52:36.580Z,31.50
2023-04-29T21:55:03.971Z,11.40
2023-04-29T21:57:42.778Z,9.80
2023-04-29T22:00:28.325Z,2.90
2023-04-29T22:02:55.299Z,9.70
2023-04-29T22:05:22.364Z,4.10
2023-04-29T22:07:49.250Z,4.20
2023-04-29T22:10:16.354Z,7.10
2023-04-29T22:12:43.320Z,3.30
2023-04-29T22:15:26.916Z,2.20
2023-04-29T22:21:22.152Z,4.80
2023-04-29T22:23:49.253Z,3.90
2023-04-29T22:26:16.348Z,1.70
2023-04-29T22:28:43.290Z,1.20
2023-04-29T22:31:10.251Z,2.10
2023-04-29T22:33:37.285Z,3.60
2023-04-29T22:36:05.473Z,1.50
2023-04-29T22:38:32.444Z,1.40
2023-04-29T22:40:59.757Z,1.10
2023-04-29T22:43:27.006Z,5.00
2023-04-29T22:45:54.839Z,1.20
2023-04-29T22:48:23.595Z,2.40
2023-04-29T22:50:56.237Z,5.50
2023-04-29T22:53:23.297Z,2.70
2023-04-29T22:55:50.941Z,2.60
2023-04-29T22:58:18.398Z,3.40
2023-04-29T23:00:46.379Z,4.20
2023-04-29T23:03:13.421Z,14.00
2023-04-29T23:05:41.286Z,31.00
2023-04-29T23:08:08.656Z,83.20
2023-04-29T23:10:35.697Z,12.00
2023-04-29T23:13:02.729Z,11.40
2023-04-29T23:15:29.820Z,9.60
2023-04-29T23:18:00.052Z,40.30
2023-04-29T23:20:27.156Z,64.00
2023-04-29T23:22:54.190Z,21.50
2023-04-29T23:25:21.346Z,110.30
2023-04-29T23:27:48.311Z,171.50
2023-04-29T23:30:15.337Z,58.30
2023-04-29T23:32:42.356Z,9.30
2023-04-29T23:35:11.683Z,3.80
2023-04-29T23:37:39.140Z,2.00
2023-04-29T23:40:07.483Z,3.00
2023-04-29T23:42:34.477Z,4.50
2023-04-29T23:45:01.514Z,2.30
2023-04-29T23:47:28.571Z,7.40
2023-04-29T23:49:55.838Z,3.40
2023-04-29T23:52:23.466Z,2.10
2023-04-29T23:54:51.025Z,3.20
2023-04-29T23:57:18.182Z,2.20
2023-04-29T23:59:45.844Z,4.20
